sensor_id;sensor_type;location;lat;lon;timestamp;P1;durP1;ratioP1;P2;durP2;ratioP2
67195;SDS011;54122;53.538;49.366;2022-10-22T00:02:09;12.65;;;4.53;;
67195;SDS011;54122;53.538;49.366;2022-10-22T00:04:36;4.80;;;4.10;;
67195;SDS011;54122;53.538;49.366;2022-10-22T00:07:02;9.00;;;4.70;;
67195;SDS011;54122;53.538;49.366;2022-10-22T00:09:28;10.77;;;4.75;;
67195;SDS011;54122;53.538;49.366;2022-10-22T00:11:54;8.43;;;5.10;;
67195;SDS011;54122;53.538;49.366;2022-10-22T00:14:20;9.77;;;4.90;;
67195;SDS011;54122;53.538;49.366;2022-10-22T00:18:38;7.35;;;5.22;;
67195;SDS011;54122;53.538;49.366;2022-10-22T00:21:05;9.18;;;4.95;;
67195;SDS011;54122;53.538;49.366;2022-10-22T00:23:32;8.27;;;5.00;;
67195;SDS011;54122;53.538;49.366;2022-10-22T00:25:58;8.20;;;4.68;;
67195;SDS011;54122;53.538;49.366;2022-10-22T00:28:25;10.32;;;4.93;;
67195;SDS011;54122;53.538;49.366;2022-10-22T00:30:58;11.70;;;5.05;;
67195;SDS011;54122;53.538;49.366;2022-10-22T00:33:25;9.27;;;4.95;;
67195;SDS011;54122;53.538;49.366;2022-10-22T00:35:52;10.48;;;4.70;;
67195;SDS011;54122;53.538;49.366;2022-10-22T00:38:18;10.70;;;4.32;;
67195;SDS011;54122;53.538;49.366;2022-10-22T00:40:45;10.07;;;4.65;;
67195;SDS011;54122;53.538;49.366;2022-10-22T00:43:12;9.35;;;4.25;;
67195;SDS011;54122;53.538;49.366;2022-10-22T00:45:40;7.95;;;4.13;;
67195;SDS011;54122;53.538;49.366;2022-10-22T00:48:08;8.68;;;4.10;;
67195;SDS011;54122;53.538;49.366;2022-10-22T00:50:42;7.13;;;4.03;;
67195;SDS011;54122;53.538;49.366;2022-10-22T00:53:24;12.57;;;4.15;;
67195;SDS011;54122;53.538;49.366;2022-10-22T00:55:56;6.07;;;4.38;;
67195;SDS011;54122;53.538;49.366;2022-10-22T00:58:23;9.13;;;4.35;;
67195;SDS011;54122;53.538;49.366;2022-10-22T01:00:52;12.27;;;4.47;;
67195;SDS011;54122;53.538;49.366;2022-10-22T01:03:19;6.55;;;4.18;;
67195;SDS011;54122;53.538;49.366;2022-10-22T01:07:38;13.20;;;4.40;;
67195;SDS011;54122;53.538;49.366;2022-10-22T01:10:15;10.30;;;4.72;;
67195;SDS011;54122;53.538;49.366;2022-10-22T01:12:45;10.07;;;4.70;;
67195;SDS011;54122;53.538;49.366;2022-10-22T01:18:05;8.85;;;4.60;;
67195;SDS011;54122;53.538;49.366;2022-10-22T01:20:38;8.35;;;4.40;;
67195;SDS011;54122;53.538;49.366;2022-10-22T01:31:39;6.93;;;4.05;;
67195;SDS011;54122;53.538;49.366;2022-10-22T01:34:09;8.10;;;4.32;;
67195;SDS011;54122;53.538;49.366;2022-10-22T01:36:39;6.97;;;4.65;;
67195;SDS011;54122;53.538;49.366;2022-10-22T01:39:07;13.13;;;4.53;;
67195;SDS011;54122;53.538;49.366;2022-10-22T01:41:34;9.60;;;4.50;;
67195;SDS011;54122;53.538;49.366;2022-10-22T01:44:00;15.05;;;4.47;;
67195;SDS011;54122;53.538;49.366;2022-10-22T01:46:27;8.73;;;4.40;;
67195;SDS011;54122;53.538;49.366;2022-10-22T01:48:58;7.28;;;4.35;;
67195;SDS011;54122;53.538;49.366;2022-10-22T01:54:20;6.55;;;3.63;;
67195;SDS011;54122;53.538;49.366;2022-10-22T02:00:08;7.90;;;3.97;;
67195;SDS011;54122;53.538;49.366;2022-10-22T02:03:00;11.48;;;3.88;;
67195;SDS011;54122;53.538;49.366;2022-10-22T02:08:23;7.78;;;3.80;;
67195;SDS011;54122;53.538;49.366;2022-10-22T02:10:52;8.20;;;3.58;;
67195;SDS011;54122;53.538;49.366;2022-10-22T02:13:23;8.18;;;3.53;;
67195;SDS011;54122;53.538;49.366;2022-10-22T02:16:01;8.50;;;3.78;;
67195;SDS011;54122;53.538;49.366;2022-10-22T02:18:31;5.55;;;3.55;;
67195;SDS011;54122;53.538;49.366;2022-10-22T02:20:59;9.90;;;3.45;;
67195;SDS011;54122;53.538;49.366;2022-10-22T02:23:26;6.95;;;3.60;;
67195;SDS011;54122;53.538;49.366;2022-10-22T02:25:55;8.27;;;3.78;;
67195;SDS011;54122;53.538;49.366;2022-10-22T02:31:13;5.65;;;3.08;;
67195;SDS011;54122;53.538;49.366;2022-10-22T02:33:47;6.63;;;3.00;;
67195;SDS011;54122;53.538;49.366;2022-10-22T02:36:16;9.05;;;3.40;;
67195;SDS011;54122;53.538;49.366;2022-10-22T02:38:43;4.55;;;3.28;;
67195;SDS011;54122;53.538;49.366;2022-10-22T02:41:11;4.93;;;3.17;;
67195;SDS011;54122;53.538;49.366;2022-10-22T02:43:41;7.10;;;3.63;;
67195;SDS011;54122;53.538;49.366;2022-10-22T02:46:09;5.68;;;3.42;;
67195;SDS011;54122;53.538;49.366;2022-10-22T02:48:36;8.60;;;3.33;;
67195;SDS011;54122;53.538;49.366;2022-10-22T02:51:02;7.72;;;3.35;;
67195;SDS011;54122;53.538;49.366;2022-10-22T02:53:28;6.45;;;3.05;;
67195;SDS011;54122;53.538;49.366;2022-10-22T02:55:55;10.55;;;3.63;;
67195;SDS011;54122;53.538;49.366;2022-10-22T02:58:21;9.80;;;3.60;;
67195;SDS011;54122;53.538;49.366;2022-10-22T03:00:47;11.07;;;3.60;;
67195;SDS011;54122;53.538;49.366;2022-10-22T03:03:13;8.90;;;3.40;;
67195;SDS011;54122;53.538;49.366;2022-10-22T03:05:39;12.23;;;3.83;;
67195;SDS011;54122;53.538;49.366;2022-10-22T03:08:05;9.30;;;4.00;;
67195;SDS011;54122;53.538;49.366;2022-10-22T03:10:32;14.05;;;4.15;;
67195;SDS011;54122;53.538;49.366;2022-10-22T03:12:58;18.17;;;4.72;;
67195;SDS011;54122;53.538;49.366;2022-10-22T03:15:24;34.97;;;5.97;;
67195;SDS011;54122;53.538;49.366;2022-10-22T03:17:50;58.67;;;6.05;;
67195;SDS011;54122;53.538;49.366;2022-10-22T03:20:16;48.70;;;6.38;;
67195;SDS011;54122;53.538;49.366;2022-10-22T03:22:42;38.63;;;5.93;;
67195;SDS011;54122;53.538;49.366;2022-10-22T03:25:11;35.47;;;5.05;;
67195;SDS011;54122;53.538;49.366;2022-10-22T03:27:40;38.45;;;5.82;;
67195;SDS011;54122;53.538;49.366;2022-10-22T03:30:08;26.15;;;4.43;;
67195;SDS011;54122;53.538;49.366;2022-10-22T03:32:34;32.97;;;5.22;;
67195;SDS011;54122;53.538;49.366;2022-10-22T03:35:00;17.42;;;4.88;;
67195;SDS011;54122;53.538;49.366;2022-10-22T03:37:26;33.90;;;5.35;;
67195;SDS011;54122;53.538;49.366;2022-10-22T03:39:53;23.35;;;4.95;;
67195;SDS011;54122;53.538;49.366;2022-10-22T03:42:19;30.10;;;4.88;;
67195;SDS011;54122;53.538;49.366;2022-10-22T03:44:46;56.38;;;8.10;;
67195;SDS011;54122;53.538;49.366;2022-10-22T03:47:12;61.67;;;8.93;;
67195;SDS011;54122;53.538;49.366;2022-10-22T03:49:38;42.83;;;7.25;;
67195;SDS011;54122;53.538;49.366;2022-10-22T03:52:05;28.50;;;6.15;;
67195;SDS011;54122;53.538;49.366;2022-10-22T03:54:32;31.50;;;6.20;;
67195;SDS011;54122;53.538;49.366;2022-10-22T03:56:59;29.25;;;6.30;;
67195;SDS011;54122;53.538;49.366;2022-10-22T03:59:25;30.52;;;6.88;;
67195;SDS011;54122;53.538;49.366;2022-10-22T04:01:51;25.80;;;5.82;;
67195;SDS011;54122;53.538;49.366;2022-10-22T04:04:18;22.25;;;6.30;;
67195;SDS011;54122;53.538;49.366;2022-10-22T04:06:44;34.10;;;6.00;;
67195;SDS011;54122;53.538;49.366;2022-10-22T04:09:10;28.70;;;6.03;;
67195;SDS011;54122;53.538;49.366;2022-10-22T04:11:36;26.90;;;5.85;;
67195;SDS011;54122;53.538;49.366;2022-10-22T04:14:02;35.17;;;5.72;;
67195;SDS011;54122;53.538;49.366;2022-10-22T04:16:28;20.63;;;4.97;;
67195;SDS011;54122;53.538;49.366;2022-10-22T04:18:57;8.63;;;4.43;;
67195;SDS011;54122;53.538;49.366;2022-10-22T04:21:23;17.15;;;5.25;;
67195;SDS011;54122;53.538;49.366;2022-10-22T04:23:51;11.45;;;4.68;;
67195;SDS011;54122;53.538;49.366;2022-10-22T04:26:18;16.35;;;4.68;;
67195;SDS011;54122;53.538;49.366;2022-10-22T04:28:44;15.00;;;4.25;;
67195;SDS011;54122;53.538;49.366;2022-10-22T04:31:12;11.90;;;4.50;;
67195;SDS011;54122;53.538;49.366;2022-10-22T04:33:40;24.70;;;5.07;;
67195;SDS011;54122;53.538;49.366;2022-10-22T04:36:09;26.80;;;5.10;;
67195;SDS011;54122;53.538;49.366;2022-10-22T04:38:39;18.65;;;4.50;;
67195;SDS011;54122;53.538;49.366;2022-10-22T04:41:13;17.60;;;4.20;;
67195;SDS011;54122;53.538;49.366;2022-10-22T04:43:42;14.20;;;3.22;;
67195;SDS011;54122;53.538;49.366;2022-10-22T04:46:09;9.88;;;2.83;;
67195;SDS011;54122;53.538;49.366;2022-10-22T04:48:40;14.48;;;3.40;;
67195;SDS011;54122;53.538;49.366;2022-10-22T04:51:07;12.93;;;4.03;;
67195;SDS011;54122;53.538;49.366;2022-10-22T04:53:38;13.10;;;4.25;;
67195;SDS011;54122;53.538;49.366;2022-10-22T04:56:08;11.18;;;3.95;;
67195;SDS011;54122;53.538;49.366;2022-10-22T04:58:37;8.43;;;3.55;;
67195;SDS011;54122;53.538;49.366;2022-10-22T05:06:02;10.10;;;4.18;;
67195;SDS011;54122;53.538;49.366;2022-10-22T05:08:28;9.30;;;4.22;;
67195;SDS011;54122;53.538;49.366;2022-10-22T05:10:54;9.38;;;4.10;;
67195;SDS011;54122;53.538;49.366;2022-10-22T05:13:20;8.27;;;3.47;;
67195;SDS011;54122;53.538;49.366;2022-10-22T05:15:47;8.02;;;3.40;;
67195;SDS011;54122;53.538;49.366;2022-10-22T05:18:13;11.00;;;3.58;;
67195;SDS011;54122;53.538;49.366;2022-10-22T05:20:40;8.02;;;3.25;;
67195;SDS011;54122;53.538;49.366;2022-10-22T05:23:06;6.70;;;3.17;;
67195;SDS011;54122;53.538;49.366;2022-10-22T05:25:39;5.95;;;2.85;;
67195;SDS011;54122;53.538;49.366;2022-10-22T05:28:05;9.68;;;2.50;;
67195;SDS011;54122;53.538;49.366;2022-10-22T05:30:31;8.45;;;2.22;;
67195;SDS011;54122;53.538;49.366;2022-10-22T05:32:57;5.93;;;2.30;;
67195;SDS011;54122;53.538;49.366;2022-10-22T05:35:23;9.75;;;2.10;;
67195;SDS011;54122;53.538;49.366;2022-10-22T05:37:52;6.50;;;2.00;;
67195;SDS011;54122;53.538;49.366;2022-10-22T05:40:18;5.13;;;2.15;;
67195;SDS011;54122;53.538;49.366;2022-10-22T05:42:44;6.07;;;2.13;;
67195;SDS011;54122;53.538;49.366;2022-10-22T05:45:10;6.47;;;2.15;;
67195;SDS011;54122;53.538;49.366;2022-10-22T05:47:36;6.45;;;2.47;;
67195;SDS011;54122;53.538;49.366;2022-10-22T05:50:02;4.78;;;2.55;;
67195;SDS011;54122;53.538;49.366;2022-10-22T05:52:29;10.10;;;2.20;;
67195;SDS011;54122;53.538;49.366;2022-10-22T05:54:55;4.30;;;2.08;;
67195;SDS011;54122;53.538;49.366;2022-10-22T05:57:21;4.47;;;2.50;;
67195;SDS011;54122;53.538;49.366;2022-10-22T05:59:47;8.18;;;2.53;;
67195;SDS011;54122;53.538;49.366;2022-10-22T06:02:14;11.93;;;2.53;;
67195;SDS011;54122;53.538;49.366;2022-10-22T06:04:40;7.38;;;2.72;;
67195;SDS011;54122;53.538;49.366;2022-10-22T06:07:07;10.25;;;2.25;;
67195;SDS011;54122;53.538;49.366;2022-10-22T06:09:41;7.65;;;1.85;;
67195;SDS011;54122;53.538;49.366;2022-10-22T06:12:08;6.53;;;1.77;;
67195;SDS011;54122;53.538;49.366;2022-10-22T06:14:36;4.75;;;1.73;;
67195;SDS011;54122;53.538;49.366;2022-10-22T06:17:02;7.93;;;2.63;;
67195;SDS011;54122;53.538;49.366;2022-10-22T06:19:29;5.10;;;2.22;;
67195;SDS011;54122;53.538;49.366;2022-10-22T06:21:55;6.97;;;2.30;;
67195;SDS011;54122;53.538;49.366;2022-10-22T06:24:21;6.35;;;1.90;;
67195;SDS011;54122;53.538;49.366;2022-10-22T06:26:48;3.45;;;1.20;;
67195;SDS011;54122;53.538;49.366;2022-10-22T06:29:15;4.93;;;1.58;;
67195;SDS011;54122;53.538;49.366;2022-10-22T06:31:42;4.53;;;1.48;;
67195;SDS011;54122;53.538;49.366;2022-10-22T06:34:10;5.57;;;1.40;;
67195;SDS011;54122;53.538;49.366;2022-10-22T06:36:38;4.80;;;1.60;;
67195;SDS011;54122;53.538;49.366;2022-10-22T06:39:08;6.57;;;1.30;;
67195;SDS011;54122;53.538;49.366;2022-10-22T06:41:36;4.25;;;1.40;;
67195;SDS011;54122;53.538;49.366;2022-10-22T06:44:02;5.20;;;1.20;;
67195;SDS011;54122;53.538;49.366;2022-10-22T06:46:28;5.25;;;1.42;;
67195;SDS011;54122;53.538;49.366;2022-10-22T06:48:59;4.32;;;1.00;;
67195;SDS011;54122;53.538;49.366;2022-10-22T06:51:27;6.55;;;1.48;;
67195;SDS011;54122;53.538;49.366;2022-10-22T06:53:54;19.42;;;1.55;;
67195;SDS011;54122;53.538;49.366;2022-10-22T06:56:22;4.78;;;1.50;;
67195;SDS011;54122;53.538;49.366;2022-10-22T06:58:50;2.20;;;1.00;;
67195;SDS011;54122;53.538;49.366;2022-10-22T07:01:18;4.75;;;1.48;;
67195;SDS011;54122;53.538;49.366;2022-10-22T07:03:46;5.50;;;1.52;;
67195;SDS011;54122;53.538;49.366;2022-10-22T07:06:14;6.57;;;1.20;;
67195;SDS011;54122;53.538;49.366;2022-10-22T07:08:40;4.05;;;1.25;;
67195;SDS011;54122;53.538;49.366;2022-10-22T07:11:14;8.05;;;1.40;;
67195;SDS011;54122;53.538;49.366;2022-10-22T07:13:42;4.47;;;1.33;;
67195;SDS011;54122;53.538;49.366;2022-10-22T07:16:09;4.05;;;1.20;;
67195;SDS011;54122;53.538;49.366;2022-10-22T07:18:36;4.35;;;1.30;;
67195;SDS011;54122;53.538;49.366;2022-10-22T07:21:04;4.22;;;1.20;;
67195;SDS011;54122;53.538;49.366;2022-10-22T07:23:31;4.80;;;1.30;;
67195;SDS011;54122;53.538;49.366;2022-10-22T07:25:57;6.13;;;1.25;;
67195;SDS011;54122;53.538;49.366;2022-10-22T07:28:23;5.80;;;1.42;;
67195;SDS011;54122;53.538;49.366;2022-10-22T07:30:50;4.07;;;1.27;;
67195;SDS011;54122;53.538;49.366;2022-10-22T07:33:16;7.20;;;1.15;;
67195;SDS011;54122;53.538;49.366;2022-10-22T07:35:42;2.95;;;1.10;;
67195;SDS011;54122;53.538;49.366;2022-10-22T07:38:08;8.45;;;1.30;;
67195;SDS011;54122;53.538;49.366;2022-10-22T07:40:35;8.07;;;1.17;;
67195;SDS011;54122;53.538;49.366;2022-10-22T07:43:01;5.97;;;1.10;;
67195;SDS011;54122;53.538;49.366;2022-10-22T07:45:28;4.15;;;1.13;;
67195;SDS011;54122;53.538;49.366;2022-10-22T07:47:54;3.95;;;0.95;;
67195;SDS011;54122;53.538;49.366;2022-10-22T07:50:20;10.45;;;1.20;;
67195;SDS011;54122;53.538;49.366;2022-10-22T07:52:47;9.68;;;1.50;;
67195;SDS011;54122;53.538;49.366;2022-10-22T07:55:13;3.58;;;1.00;;
67195;SDS011;54122;53.538;49.366;2022-10-22T07:57:39;8.48;;;4.03;;
67195;SDS011;54122;53.538;49.366;2022-10-22T08:00:06;14.43;;;6.03;;
67195;SDS011;54122;53.538;49.366;2022-10-22T08:02:33;17.95;;;4.97;;
67195;SDS011;54122;53.538;49.366;2022-10-22T08:04:59;10.07;;;3.78;;
67195;SDS011;54122;53.538;49.366;2022-10-22T08:07:26;24.27;;;10.68;;
67195;SDS011;54122;53.538;49.366;2022-10-22T08:09:55;15.38;;;2.35;;
67195;SDS011;54122;53.538;49.366;2022-10-22T08:12:21;4.47;;;1.05;;
67195;SDS011;54122;53.538;49.366;2022-10-22T08:14:47;5.70;;;1.13;;
67195;SDS011;54122;53.538;49.366;2022-10-22T08:17:14;6.30;;;1.00;;
67195;SDS011;54122;53.538;49.366;2022-10-22T08:19:40;5.80;;;1.00;;
67195;SDS011;54122;53.538;49.366;2022-10-22T08:22:06;3.45;;;1.02;;
67195;SDS011;54122;53.538;49.366;2022-10-22T08:24:33;3.60;;;1.33;;
67195;SDS011;54122;53.538;49.366;2022-10-22T08:26:59;7.63;;;1.55;;
67195;SDS011;54122;53.538;49.366;2022-10-22T08:29:25;6.05;;;1.10;;
67195;SDS011;54122;53.538;49.366;2022-10-22T08:31:53;9.85;;;1.00;;
67195;SDS011;54122;53.538;49.366;2022-10-22T08:34:19;7.25;;;1.33;;
67195;SDS011;54122;53.538;49.366;2022-10-22T08:36:45;6.05;;;1.35;;
67195;SDS011;54122;53.538;49.366;2022-10-22T08:39:12;8.80;;;1.33;;
67195;SDS011;54122;53.538;49.366;2022-10-22T08:44:42;11.95;;;1.20;;
67195;SDS011;54122;53.538;49.366;2022-10-22T08:49:51;5.07;;;1.80;;
67195;SDS011;54122;53.538;49.366;2022-10-22T08:52:18;6.20;;;1.65;;
67195;SDS011;54122;53.538;49.366;2022-10-22T08:54:54;14.15;;;3.00;;
67195;SDS011;54122;53.538;49.366;2022-10-22T09:00:19;12.60;;;5.05;;
67195;SDS011;54122;53.538;49.366;2022-10-22T09:02:58;3.47;;;1.20;;
67195;SDS011;54122;53.538;49.366;2022-10-22T09:05:42;5.10;;;1.73;;
67195;SDS011;54122;53.538;49.366;2022-10-22T09:08:14;8.13;;;4.72;;
67195;SDS011;54122;53.538;49.366;2022-10-22T09:10:45;5.60;;;1.92;;
67195;SDS011;54122;53.538;49.366;2022-10-22T09:13:15;6.35;;;1.13;;
67195;SDS011;54122;53.538;49.366;2022-10-22T09:15:51;12.38;;;1.52;;
67195;SDS011;54122;53.538;49.366;2022-10-22T09:18:23;8.18;;;1.05;;
67195;SDS011;54122;53.538;49.366;2022-10-22T09:20:55;6.20;;;1.20;;
67195;SDS011;54122;53.538;49.366;2022-10-22T09:23:33;5.05;;;0.80;;
67195;SDS011;54122;53.538;49.366;2022-10-22T09:26:11;7.40;;;1.30;;
67195;SDS011;54122;53.538;49.366;2022-10-22T09:28:40;4.25;;;1.20;;
67195;SDS011;54122;53.538;49.366;2022-10-22T09:31:11;2.97;;;1.23;;
67195;SDS011;54122;53.538;49.366;2022-10-22T09:33:39;7.47;;;1.40;;
67195;SDS011;54122;53.538;49.366;2022-10-22T09:36:07;6.50;;;1.35;;
67195;SDS011;54122;53.538;49.366;2022-10-22T09:38:43;5.43;;;1.40;;
67195;SDS011;54122;53.538;49.366;2022-10-22T09:41:15;8.05;;;1.40;;
67195;SDS011;54122;53.538;49.366;2022-10-22T09:43:42;4.05;;;0.90;;
67195;SDS011;54122;53.538;49.366;2022-10-22T09:46:15;6.50;;;1.30;;
67195;SDS011;54122;53.538;49.366;2022-10-22T09:49:26;2.58;;;0.90;;
67195;SDS011;54122;53.538;49.366;2022-10-22T09:54:53;6.88;;;2.03;;
67195;SDS011;54122;53.538;49.366;2022-10-22T09:57:20;9.25;;;1.65;;
67195;SDS011;54122;53.538;49.366;2022-10-22T09:59:50;7.20;;;1.63;;
67195;SDS011;54122;53.538;49.366;2022-10-22T10:02:19;5.18;;;1.30;;
67195;SDS011;54122;53.538;49.366;2022-10-22T10:05:05;3.85;;;1.70;;
67195;SDS011;54122;53.538;49.366;2022-10-22T10:07:33;11.63;;;1.58;;
67195;SDS011;54122;53.538;49.366;2022-10-22T10:10:05;3.70;;;1.35;;
67195;SDS011;54122;53.538;49.366;2022-10-22T10:12:55;10.40;;;1.30;;
67195;SDS011;54122;53.538;49.366;2022-10-22T10:39:50;10.65;;;2.58;;
67195;SDS011;54122;53.538;49.366;2022-10-22T10:42:52;10.93;;;1.60;;
67195;SDS011;54122;53.538;49.366;2022-10-22T10:48:33;6.78;;;2.28;;
67195;SDS011;54122;53.538;49.366;2022-10-22T10:54:15;6.47;;;1.90;;
67195;SDS011;54122;53.538;49.366;2022-10-22T11:02:20;6.38;;;1.80;;
67195;SDS011;54122;53.538;49.366;2022-10-22T11:11:11;3.90;;;1.80;;
67195;SDS011;54122;53.538;49.366;2022-10-22T11:26:59;13.18;;;1.77;;
67195;SDS011;54122;53.538;49.366;2022-10-22T11:29:39;8.52;;;2.00;;
67195;SDS011;54122;53.538;49.366;2022-10-22T11:32:13;8.05;;;2.65;;
67195;SDS011;54122;53.538;49.366;2022-10-22T11:34:47;9.18;;;2.22;;
67195;SDS011;54122;53.538;49.366;2022-10-22T11:37:23;7.20;;;2.20;;
67195;SDS011;54122;53.538;49.366;2022-10-22T11:40:06;12.60;;;2.22;;
67195;SDS011;54122;53.538;49.366;2022-10-22T11:42:54;8.68;;;2.42;;
67195;SDS011;54122;53.538;49.366;2022-10-22T11:55:52;10.73;;;1.40;;
67195;SDS011;54122;53.538;49.366;2022-10-22T12:00:54;18.83;;;2.20;;
67195;SDS011;54122;53.538;49.366;2022-10-22T12:16:28;6.20;;;2.13;;
67195;SDS011;54122;53.538;49.366;2022-10-22T12:19:03;5.72;;;1.52;;
67195;SDS011;54122;53.538;49.366;2022-10-22T12:21:31;7.15;;;1.70;;
67195;SDS011;54122;53.538;49.366;2022-10-22T12:23:59;12.23;;;1.75;;
67195;SDS011;54122;53.538;49.366;2022-10-22T12:26:28;4.10;;;1.63;;
67195;SDS011;54122;53.538;49.366;2022-10-22T12:29:00;2.72;;;1.50;;
67195;SDS011;54122;53.538;49.366;2022-10-22T12:31:29;9.20;;;1.60;;
67195;SDS011;54122;53.538;49.366;2022-10-22T12:34:01;8.63;;;1.70;;
67195;SDS011;54122;53.538;49.366;2022-10-22T12:36:34;10.70;;;1.77;;
67195;SDS011;54122;53.538;49.366;2022-10-22T12:39:10;6.20;;;2.20;;
67195;SDS011;54122;53.538;49.366;2022-10-22T12:41:41;12.10;;;5.05;;
67195;SDS011;54122;53.538;49.366;2022-10-22T12:44:10;14.20;;;3.72;;
67195;SDS011;54122;53.538;49.366;2022-10-22T12:46:39;9.32;;;4.05;;
67195;SDS011;54122;53.538;49.366;2022-10-22T12:49:09;12.13;;;3.03;;
67195;SDS011;54122;53.538;49.366;2022-10-22T12:51:44;16.40;;;3.25;;
67195;SDS011;54122;53.538;49.366;2022-10-22T12:54:28;8.48;;;2.50;;
67195;SDS011;54122;53.538;49.366;2022-10-22T12:56:57;8.07;;;2.28;;
67195;SDS011;54122;53.538;49.366;2022-10-22T12:59:58;9.68;;;2.65;;
67195;SDS011;54122;53.538;49.366;2022-10-22T13:02:22;33.72;;;16.00;;
67195;SDS011;54122;53.538;49.366;2022-10-22T13:08:01;6.45;;;3.55;;
67195;SDS011;54122;53.538;49.366;2022-10-22T13:10:47;8.85;;;2.53;;
67195;SDS011;54122;53.538;49.366;2022-10-22T13:13:28;13.25;;;1.83;;
67195;SDS011;54122;53.538;49.366;2022-10-22T13:16:15;5.47;;;1.73;;
67195;SDS011;54122;53.538;49.366;2022-10-22T13:18:49;4.72;;;1.90;;
67195;SDS011;54122;53.538;49.366;2022-10-22T13:21:21;7.03;;;2.22;;
67195;SDS011;54122;53.538;49.366;2022-10-22T13:24:18;11.38;;;2.45;;
67195;SDS011;54122;53.538;49.366;2022-10-22T13:26:46;7.63;;;2.45;;
67195;SDS011;54122;53.538;49.366;2022-10-22T13:29:20;10.45;;;3.33;;
67195;SDS011;54122;53.538;49.366;2022-10-22T13:31:49;14.20;;;4.63;;
67195;SDS011;54122;53.538;49.366;2022-10-22T13:34:21;15.18;;;3.80;;
67195;SDS011;54122;53.538;49.366;2022-10-22T13:36:49;13.15;;;4.75;;
67195;SDS011;54122;53.538;49.366;2022-10-22T13:39:21;13.48;;;5.10;;
67195;SDS011;54122;53.538;49.366;2022-10-22T13:41:49;14.18;;;6.88;;
67195;SDS011;54122;53.538;49.366;2022-10-22T13:44:17;27.88;;;11.95;;
67195;SDS011;54122;53.538;49.366;2022-10-22T13:46:44;37.63;;;13.30;;
67195;SDS011;54122;53.538;49.366;2022-10-22T13:49:14;34.25;;;14.85;;
67195;SDS011;54122;53.538;49.366;2022-10-22T13:51:45;30.50;;;12.95;;
67195;SDS011;54122;53.538;49.366;2022-10-22T13:54:13;30.90;;;12.93;;
67195;SDS011;54122;53.538;49.366;2022-10-22T13:56:43;34.13;;;13.98;;
67195;SDS011;54122;53.538;49.366;2022-10-22T13:59:09;32.10;;;11.82;;
67195;SDS011;54122;53.538;49.366;2022-10-22T14:01:36;28.17;;;9.25;;
67195;SDS011;54122;53.538;49.366;2022-10-22T14:04:03;34.78;;;9.15;;
67195;SDS011;54122;53.538;49.366;2022-10-22T14:06:32;31.02;;;9.63;;
67195;SDS011;54122;53.538;49.366;2022-10-22T14:09:01;22.15;;;7.63;;
67195;SDS011;54122;53.538;49.366;2022-10-22T14:11:33;21.75;;;7.72;;
67195;SDS011;54122;53.538;49.366;2022-10-22T14:14:00;21.13;;;7.30;;
67195;SDS011;54122;53.538;49.366;2022-10-22T14:16:29;20.23;;;7.13;;
67195;SDS011;54122;53.538;49.366;2022-10-22T14:18:57;19.58;;;8.40;;
67195;SDS011;54122;53.538;49.366;2022-10-22T14:21:25;21.73;;;5.90;;
67195;SDS011;54122;53.538;49.366;2022-10-22T14:23:57;14.98;;;6.22;;
67195;SDS011;54122;53.538;49.366;2022-10-22T14:26:24;15.18;;;5.40;;
67195;SDS011;54122;53.538;49.366;2022-10-22T14:28:57;14.70;;;5.03;;
67195;SDS011;54122;53.538;49.366;2022-10-22T14:31:24;15.45;;;5.40;;
67195;SDS011;54122;53.538;49.366;2022-10-22T14:33:51;14.93;;;5.45;;
67195;SDS011;54122;53.538;49.366;2022-10-22T14:36:17;13.25;;;5.82;;
67195;SDS011;54122;53.538;49.366;2022-10-22T14:38:44;14.13;;;4.57;;
67195;SDS011;54122;53.538;49.366;2022-10-22T14:41:22;9.25;;;3.90;;
67195;SDS011;54122;53.538;49.366;2022-10-22T14:43:50;13.52;;;3.67;;
67195;SDS011;54122;53.538;49.366;2022-10-22T14:46:20;12.55;;;3.90;;
67195;SDS011;54122;53.538;49.366;2022-10-22T14:48:46;26.52;;;11.45;;
67195;SDS011;54122;53.538;49.366;2022-10-22T14:51:13;17.35;;;4.75;;
67195;SDS011;54122;53.538;49.366;2022-10-22T14:53:42;8.30;;;3.65;;
67195;SDS011;54122;53.538;49.366;2022-10-22T14:56:13;8.10;;;3.90;;
67195;SDS011;54122;53.538;49.366;2022-10-22T14:58:41;14.75;;;4.60;;
67195;SDS011;54122;53.538;49.366;2022-10-22T15:01:08;11.70;;;4.32;;
67195;SDS011;54122;53.538;49.366;2022-10-22T15:03:34;36.30;;;15.77;;
67195;SDS011;54122;53.538;49.366;2022-10-22T15:06:01;29.08;;;12.27;;
67195;SDS011;54122;53.538;49.366;2022-10-22T15:08:28;21.20;;;9.23;;
67195;SDS011;54122;53.538;49.366;2022-10-22T15:11:05;28.38;;;9.30;;
67195;SDS011;54122;53.538;49.366;2022-10-22T15:13:36;16.98;;;7.00;;
67195;SDS011;54122;53.538;49.366;2022-10-22T15:16:05;26.80;;;7.15;;
67195;SDS011;54122;53.538;49.366;2022-10-22T15:18:32;15.52;;;6.10;;
67195;SDS011;54122;53.538;49.366;2022-10-22T15:21:03;15.85;;;6.03;;
67195;SDS011;54122;53.538;49.366;2022-10-22T15:25:58;15.32;;;6.25;;
67195;SDS011;54122;53.538;49.366;2022-10-22T15:28:24;13.80;;;5.10;;
67195;SDS011;54122;53.538;49.366;2022-10-22T15:30:51;37.55;;;12.60;;
67195;SDS011;54122;53.538;49.366;2022-10-22T15:33:21;37.65;;;13.23;;
67195;SDS011;54122;53.538;49.366;2022-10-22T15:35:50;18.67;;;9.18;;
67195;SDS011;54122;53.538;49.366;2022-10-22T15:38:17;13.40;;;5.63;;
67195;SDS011;54122;53.538;49.366;2022-10-22T15:40:43;14.57;;;4.50;;
67195;SDS011;54122;53.538;49.366;2022-10-22T15:43:10;20.65;;;13.32;;
67195;SDS011;54122;53.538;49.366;2022-10-22T15:45:39;22.90;;;12.60;;
67195;SDS011;54122;53.538;49.366;2022-10-22T15:48:07;12.32;;;4.22;;
67195;SDS011;54122;53.538;49.366;2022-10-22T15:50:36;17.13;;;5.50;;
67195;SDS011;54122;53.538;49.366;2022-10-22T15:53:03;14.20;;;5.43;;
67195;SDS011;54122;53.538;49.366;2022-10-22T15:55:30;15.60;;;5.57;;
67195;SDS011;54122;53.538;49.366;2022-10-22T15:57:57;18.90;;;5.53;;
67195;SDS011;54122;53.538;49.366;2022-10-22T16:00:23;19.50;;;5.25;;
67195;SDS011;54122;53.538;49.366;2022-10-22T16:02:49;15.57;;;4.80;;
67195;SDS011;54122;53.538;49.366;2022-10-22T16:05:15;14.20;;;4.70;;
67195;SDS011;54122;53.538;49.366;2022-10-22T16:07:42;11.80;;;4.75;;
67195;SDS011;54122;53.538;49.366;2022-10-22T16:10:10;13.18;;;5.30;;
67195;SDS011;54122;53.538;49.366;2022-10-22T16:12:38;12.57;;;4.85;;
67195;SDS011;54122;53.538;49.366;2022-10-22T16:15:05;17.33;;;4.10;;
67195;SDS011;54122;53.538;49.366;2022-10-22T16:17:34;14.75;;;4.53;;
67195;SDS011;54122;53.538;49.366;2022-10-22T16:20:04;13.45;;;4.60;;
67195;SDS011;54122;53.538;49.366;2022-10-22T16:22:31;14.57;;;4.40;;
67195;SDS011;54122;53.538;49.366;2022-10-22T16:24:57;15.52;;;4.90;;
67195;SDS011;54122;53.538;49.366;2022-10-22T16:27:24;14.63;;;4.85;;
67195;SDS011;54122;53.538;49.366;2022-10-22T16:29:52;15.45;;;5.00;;
67195;SDS011;54122;53.538;49.366;2022-10-22T16:32:20;12.00;;;5.18;;
67195;SDS011;54122;53.538;49.366;2022-10-22T16:34:47;17.48;;;5.45;;
67195;SDS011;54122;53.538;49.366;2022-10-22T16:37:13;16.63;;;5.35;;
67195;SDS011;54122;53.538;49.366;2022-10-22T16:39:40;71.05;;;29.48;;
67195;SDS011;54122;53.538;49.366;2022-10-22T16:42:09;57.13;;;21.02;;
67195;SDS011;54122;53.538;49.366;2022-10-22T16:44:35;64.80;;;27.40;;
67195;SDS011;54122;53.538;49.366;2022-10-22T16:47:14;56.28;;;23.40;;
67195;SDS011;54122;53.538;49.366;2022-10-22T16:49:50;38.80;;;15.63;;
67195;SDS011;54122;53.538;49.366;2022-10-22T16:52:22;28.60;;;12.43;;